Time;durP1;ratioP1;P1;durP2;ratioP2;P2;SDS_P1;SDS_P2;PMS_P1;PMS_P2;Temp;Humidity;BMP_temperature;BMP_pressure;BME280_temperature;BME280_humidity;BME280_pressure;Samples;Min_cycle;Max_cycle;Signal;HPM_P1;HPM_P2
2023/03/13 00:01:23;;;;;;;27.08;6.13;;;8.70;99.90;;;;;;5078338;28;20044;-79
2023/03/13 00:03:49;;;;;;;39.00;7.57;;;8.80;99.90;;;;;;5084714;28;20044;-78
2023/03/13 00:06:16;;;;;;;35.47;7.38;;;8.80;99.90;;;;;;5090901;28;20113;-78
2023/03/13 00:08:42;;;;;;;38.13;7.15;;;8.70;99.90;;;;;;5079595;28;20476;-79
2023/03/13 00:11:10;;;;;;;36.88;7.53;;;8.70;99.90;;;;;;5079257;28;20048;-79
2023/03/13 00:13:37;;;;;;;34.70;7.03;;;8.70;99.90;;;;;;5090603;28;20055;-79
2023/03/13 00:16:05;;;;;;;31.88;6.57;;;8.70;99.90;;;;;;5091905;28;20101;-79
2023/03/13 00:18:31;;;;;;;31.33;6.63;;;8.60;99.90;;;;;;5087410;28;20502;-79
2023/03/13 00:21:07;;;;;;;32.15;6.40;;;8.70;99.90;;;;;;5077263;28;20119;-78
2023/03/13 00:23:35;;;;;;;37.70;6.80;;;8.60;99.90;;;;;;5087952;28;20475;-78
2023/03/13 00:26:12;;;;;;;35.35;6.97;;;8.60;99.90;;;;;;5078357;28;20055;-79
2023/03/13 00:28:39;;;;;;;36.75;6.95;;;8.60;99.90;;;;;;5095150;28;20135;-78
2023/03/13 00:31:11;;;;;;;38.22;6.50;;;8.60;99.90;;;;;;5071638;28;20045;-80
2023/03/13 00:33:39;;;;;;;28.40;5.88;;;8.60;99.90;;;;;;5071017;28;20408;-79
2023/03/13 00:36:11;;;;;;;33.97;6.40;;;8.60;99.90;;;;;;5083114;28;20048;-78
2023/03/13 00:38:38;;;;;;;36.40;6.75;;;8.60;99.90;;;;;;5072102;28;20044;-79
2023/03/13 00:41:07;;;;;;;31.25;6.30;;;8.60;99.90;;;;;;5066108;28;20419;-79
2023/03/13 00:43:33;;;;;;;33.33;6.80;;;8.60;99.90;;;;;;5091188;28;20412;-77
2023/03/13 00:46:00;;;;;;;34.88;6.70;;;8.60;99.90;;;;;;5075168;28;20044;-78
2023/03/13 00:48:26;;;;;;;33.92;6.80;;;8.60;99.90;;;;;;5088893;28;20051;-78
2023/03/13 00:50:52;;;;;;;32.25;5.82;;;8.60;99.90;;;;;;5057284;28;20048;-77
2023/03/13 00:53:18;;;;;;;29.77;6.45;;;8.60;99.90;;;;;;5090377;28;20479;-79
2023/03/13 00:55:55;;;;;;;27.17;5.80;;;8.60;99.90;;;;;;5096040;28;20039;-78
2023/03/13 00:58:21;;;;;;;30.15;6.60;;;8.60;99.90;;;;;;5095571;28;20056;-78
2023/03/13 01:00:47;;;;;;;32.97;6.40;;;8.50;99.90;;;;;;5076735;28;20055;-78
2023/03/13 01:03:13;;;;;;;29.92;6.38;;;8.50;99.90;;;;;;5093329;28;20403;-78
2023/03/13 01:05:39;;;;;;;29.83;6.43;;;8.50;99.90;;;;;;5096061;28;20054;-78
2023/03/13 01:08:05;;;;;;;29.77;6.72;;;8.50;99.90;;;;;;5094383;28;20047;-78
2023/03/13 01:10:31;;;;;;;27.63;6.57;;;8.50;99.90;;;;;;5082629;28;20056;-78
2023/03/13 01:12:56;;;;;;;34.63;7.07;;;8.50;99.90;;;;;;5074372;28;20040;-77
2023/03/13 01:15:23;;;;;;;30.80;7.05;;;8.50;99.90;;;;;;5081617;28;20174;-78
2023/03/13 01:17:49;;;;;;;24.67;6.20;;;8.50;99.90;;;;;;5094589;28;20131;-79
2023/03/13 01:20:14;;;;;;;33.72;6.75;;;8.50;99.90;;;;;;5082252;28;20135;-78
2023/03/13 01:22:40;;;;;;;31.13;6.85;;;8.50;99.90;;;;;;5088699;28;20058;-80
2023/03/13 01:25:07;;;;;;;28.10;6.47;;;8.50;99.90;;;;;;5090079;28;20044;-79
2023/03/13 01:27:32;;;;;;;25.02;6.22;;;8.50;99.90;;;;;;5086597;28;20047;-80
2023/03/13 01:29:58;;;;;;;26.45;6.65;;;8.50;99.90;;;;;;5077518;28;20036;-78
2023/03/13 01:32:24;;;;;;;29.48;6.90;;;8.60;99.90;;;;;;5094521;28;20048;-78
2023/03/13 01:34:49;;;;;;;32.83;6.75;;;8.50;99.90;;;;;;5094776;28;20051;-77
2023/03/13 01:37:15;;;;;;;30.10;6.30;;;8.60;99.90;;;;;;5087534;28;20131;-79
2023/03/13 01:39:41;;;;;;;26.55;6.55;;;8.60;99.90;;;;;;5075650;28;20127;-79
2023/03/13 01:42:07;;;;;;;28.05;6.80;;;8.50;99.90;;;;;;5080900;28;20127;-78
2023/03/13 01:44:56;;;;;;;28.75;6.60;;;8.60;99.90;;;;;;5074725;28;20457;-79
2023/03/13 01:47:22;;;;;;;26.60;6.57;;;8.60;99.90;;;;;;5097295;28;20113;-79
2023/03/13 01:49:50;;;;;;;30.38;6.80;;;8.60;99.90;;;;;;5094731;28;20040;-79
2023/03/13 01:52:26;;;;;;;30.88;6.57;;;8.60;99.90;;;;;;5079337;28;20048;-78
2023/03/13 01:55:16;;;;;;;29.13;5.90;;;8.60;99.90;;;;;;5065083;28;20503;-78
2023/03/13 01:57:49;;;;;;;26.60;6.30;;;8.60;99.90;;;;;;5077479;28;20056;-78
2023/03/13 02:00:26;;;;;;;29.40;6.47;;;8.60;99.90;;;;;;5087052;28;20052;-78
2023/03/13 02:02:55;;;;;;;23.52;6.38;;;8.60;99.90;;;;;;5076580;28;20119;-77
2023/03/13 02:05:25;;;;;;;29.70;6.47;;;8.70;99.90;;;;;;5076162;28;20048;-79
2023/03/13 02:07:59;;;;;;;30.77;6.20;;;8.70;99.90;;;;;;5091955;28;20047;-79
2023/03/13 02:10:26;;;;;;;28.58;6.80;;;8.80;99.90;;;;;;5087615;28;20124;-78
2023/03/13 02:12:52;;;;;;;30.65;6.68;;;8.80;99.90;;;;;;5074708;28;20052;-77
2023/03/13 02:15:21;;;;;;;31.25;6.20;;;8.80;99.90;;;;;;5092451;28;20047;-78
2023/03/13 02:17:49;;;;;;;32.55;7.65;;;8.80;99.90;;;;;;5083767;28;20053;-79
2023/03/13 02:20:17;;;;;;;34.30;6.70;;;8.80;99.90;;;;;;5094177;28;20515;-79
2023/03/13 02:22:48;;;;;;;30.00;6.78;;;8.80;99.90;;;;;;5070750;28;20047;-79
2023/03/13 02:25:14;;;;;;;25.47;6.90;;;8.80;99.90;;;;;;5084693;28;20504;-80
2023/03/13 02:27:40;;;;;;;32.72;6.93;;;8.80;99.90;;;;;;5087227;28;20289;-81
2023/03/13 02:30:09;;;;;;;26.10;6.68;;;8.80;99.90;;;;;;5060159;28;20040;-77
2023/03/13 02:32:36;;;;;;;29.30;7.20;;;8.80;99.90;;;;;;5082968;28;20161;-82
2023/03/13 02:35:12;;;;;;;26.55;7.03;;;8.80;99.90;;;;;;5076640;28;20434;-78
2023/03/13 02:37:41;;;;;;;25.75;6.80;;;8.80;99.90;;;;;;5083340;28;20052;-75
2023/03/13 02:40:11;;;;;;;26.98;7.28;;;8.80;99.90;;;;;;5090754;28;20395;-79
2023/03/13 02:42:39;;;;;;;22.25;6.63;;;8.80;99.90;;;;;;5094117;28;20048;-78
2023/03/13 02:45:06;;;;;;;21.42;6.53;;;8.80;99.90;;;;;;5079366;28;20052;-79
2023/03/13 02:47:31;;;;;;;22.45;6.80;;;8.80;99.90;;;;;;5093074;28;20052;-74
2023/03/13 02:49:57;;;;;;;20.58;6.53;;;8.80;99.90;;;;;;5062364;28;20617;-78
2023/03/13 02:52:30;;;;;;;19.65;6.25;;;8.80;99.90;;;;;;5053107;28;20098;-78
2023/03/13 02:55:01;;;;;;;20.33;6.38;;;8.80;99.90;;;;;;5082631;28;20051;-77
2023/03/13 02:57:28;;;;;;;21.55;5.90;;;8.90;99.90;;;;;;5072592;28;20493;-77
2023/03/13 02:59:54;;;;;;;18.85;6.10;;;8.90;99.90;;;;;;5076647;28;20124;-77
2023/03/13 03:02:20;;;;;;;14.45;5.75;;;8.90;99.90;;;;;;5087087;28;20052;-79
2023/03/13 03:04:46;;;;;;;15.18;5.88;;;8.90;99.90;;;;;;5062388;28;20044;-78
2023/03/13 03:07:12;;;;;;;15.35;5.57;;;8.90;99.90;;;;;;5092521;28;20059;-79
2023/03/13 03:09:37;;;;;;;14.20;5.90;;;8.90;99.90;;;;;;5093282;28;20044;-77
2023/03/13 03:12:03;;;;;;;14.85;5.38;;;8.90;99.90;;;;;;5087726;28;20045;-78
2023/03/13 03:14:29;;;;;;;14.20;5.60;;;9.00;99.90;;;;;;5084171;28;20392;-80
2023/03/13 03:16:55;;;;;;;13.50;5.05;;;9.00;99.90;;;;;;5091662;28;20052;-80
2023/03/13 03:19:36;;;;;;;12.50;5.93;;;9.10;99.90;;;;;;5141186;27;20120;-80
2023/03/13 03:22:02;;;;;;;15.68;5.70;;;9.10;99.90;;;;;;5109806;28;20562;-79
2023/03/13 03:24:28;;;;;;;12.70;5.43;;;9.10;99.90;;;;;;5097825;28;20121;-79
2023/03/13 03:26:54;;;;;;;15.35;5.30;;;9.10;99.90;;;;;;5106021;28;20082;-80
2023/03/13 03:29:19;;;;;;;12.95;5.13;;;9.10;99.90;;;;;;5103001;28;20043;-80
2023/03/13 03:31:45;;;;;;;12.00;4.88;;;9.10;99.90;;;;;;5122312;28;20172;-78
2023/03/13 03:34:11;;;;;;;13.02;5.38;;;9.20;99.90;;;;;;5075194;28;20039;-78
2023/03/13 03:36:36;;;;;;;14.52;5.65;;;9.20;99.90;;;;;;5111920;28;20054;-81
2023/03/13 03:39:04;;;;;;;13.50;5.28;;;9.20;99.90;;;;;;5110677;28;20113;-81
2023/03/13 03:41:30;;;;;;;13.25;5.55;;;9.20;99.90;;;;;;5130697;28;20055;-80
2023/03/13 03:43:56;;;;;;;13.38;5.47;;;9.20;99.90;;;;;;5109351;28;20044;-77
2023/03/13 03:46:23;;;;;;;14.45;5.75;;;9.30;99.90;;;;;;5129886;28;20356;-81
2023/03/13 03:48:49;;;;;;;15.07;6.40;;;9.30;99.90;;;;;;5108979;28;20054;-81
2023/03/13 03:51:15;;;;;;;13.75;6.10;;;9.30;99.90;;;;;;5110117;28;20487;-78
2023/03/13 03:53:40;;;;;;;13.77;5.95;;;9.40;99.90;;;;;;5101450;28;20043;-78
2023/03/13 03:56:06;;;;;;;17.00;6.22;;;9.40;99.90;;;;;;5108084;28;20070;-78
2023/03/13 03:58:32;;;;;;;14.38;6.47;;;9.40;99.90;;;;;;5106948;28;20399;-81
2023/03/13 04:00:58;;;;;;;13.57;6.28;;;9.50;99.90;;;;;;5111020;28;20047;-80
2023/03/13 04:03:25;;;;;;;14.65;7.00;;;9.50;99.90;;;;;;5086133;28;20468;-79
2023/03/13 04:05:51;;;;;;;14.20;6.63;;;9.50;99.90;;;;;;5080430;28;20051;-79
2023/03/13 04:08:16;;;;;;;18.42;7.00;;;9.50;99.90;;;;;;5097703;28;20046;-77
2023/03/13 04:10:42;;;;;;;12.35;7.32;;;9.50;99.90;;;;;;5109074;28;20101;-77
2023/03/13 04:13:08;;;;;;;13.48;7.03;;;9.50;99.90;;;;;;5071338;28;20429;-76
2023/03/13 04:15:34;;;;;;;16.00;8.05;;;9.60;99.90;;;;;;5071441;28;20052;-77
2023/03/13 04:17:59;;;;;;;15.05;7.03;;;9.60;99.90;;;;;;5084504;28;20135;-77
2023/03/13 04:20:25;;;;;;;14.48;7.28;;;9.60;99.90;;;;;;5098648;28;20379;-79
2023/03/13 04:22:51;;;;;;;14.48;7.22;;;9.60;99.90;;;;;;5089646;28;20059;-76
2023/03/13 04:25:17;;;;;;;14.23;7.65;;;9.70;99.90;;;;;;5109803;28;20547;-77
2023/03/13 04:27:42;;;;;;;12.68;6.50;;;9.70;99.90;;;;;;5109372;28;20040;-81
2023/03/13 04:30:09;;;;;;;12.18;6.53;;;9.80;99.90;;;;;;5081887;28;20395;-78
2023/03/13 04:32:34;;;;;;;11.98;6.90;;;9.80;99.90;;;;;;5065489;28;20059;-80
2023/03/13 04:35:00;;;;;;;11.73;6.80;;;9.90;99.90;;;;;;5093014;28;20040;-80
2023/03/13 04:37:26;;;;;;;11.45;7.13;;;9.90;99.90;;;;;;5076970;28;20499;-79
2023/03/13 04:39:52;;;;;;;10.70;7.07;;;9.90;99.90;;;;;;5044126;28;20048;-79
2023/03/13 04:42:17;;;;;;;11.65;6.97;;;10.00;99.90;;;;;;5074054;28;20043;-80
2023/03/13 04:44:43;;;;;;;12.13;6.90;;;10.00;99.90;;;;;;5067928;28;20438;-79
2023/03/13 04:47:09;;;;;;;12.32;7.30;;;10.00;99.90;;;;;;5072507;28;20049;-81
2023/03/13 04:49:37;;;;;;;13.05;7.38;;;10.00;99.90;;;;;;5069021;28;20197;-80
2023/03/13 04:52:03;;;;;;;12.45;6.70;;;10.10;99.90;;;;;;5073174;28;20040;-81
2023/03/13 04:54:29;;;;;;;12.82;7.47;;;10.10;99.90;;;;;;5067335;28;20062;-76
2023/03/13 04:56:55;;;;;;;10.73;7.03;;;10.10;99.90;;;;;;5076689;28;20048;-78
2023/03/13 04:59:20;;;;;;;12.85;7.85;;;10.10;99.90;;;;;;5095244;28;20040;-80
2023/03/13 05:01:46;;;;;;;12.73;8.45;;;10.20;99.90;;;;;;5073025;28;20052;-79
2023/03/13 05:04:12;;;;;;;12.70;8.48;;;10.20;99.90;;;;;;5083099;28;20043;-81
2023/03/13 05:06:38;;;;;;;13.65;9.13;;;10.20;99.90;;;;;;5036467;28;20514;-78
2023/03/13 05:09:03;;;;;;;13.05;8.45;;;10.20;99.90;;;;;;5095201;28;20047;-78
2023/03/13 05:11:29;;;;;;;14.30;8.98;;;10.20;99.90;;;;;;5094171;28;20400;-77
2023/03/13 05:13:55;;;;;;;13.85;9.10;;;10.30;99.90;;;;;;5069234;28;20049;-80
2023/03/13 05:16:21;;;;;;;13.77;9.10;;;10.30;99.90;;;;;;5094470;28;20044;-78
2023/03/13 05:18:47;;;;;;;13.65;7.65;;;10.40;99.90;;;;;;5093971;28;20056;-79
2023/03/13 05:21:13;;;;;;;12.98;8.27;;;10.40;99.90;;;;;;5091721;28;20063;-80
2023/03/13 05:23:38;;;;;;;13.23;8.77;;;10.40;99.90;;;;;;5073331;28;20126;-78
2023/03/13 05:26:04;;;;;;;13.63;8.75;;;10.40;99.90;;;;;;5075672;28;20398;-82
2023/03/13 05:28:30;;;;;;;12.45;8.65;;;10.40;99.90;;;;;;5094304;28;20040;-80
2023/03/13 05:30:56;;;;;;;13.07;8.68;;;10.50;99.90;;;;;;5059532;28;20040;-82
2023/03/13 05:33:21;;;;;;;13.27;9.25;;;10.50;99.90;;;;;;5064978;28;20044;-80
2023/03/13 05:35:47;;;;;;;11.68;8.48;;;10.50;99.90;;;;;;5079405;28;20059;-85
2023/03/13 05:38:14;;;;;;;13.05;8.70;;;10.50;99.90;;;;;;5064264;28;20408;-79
2023/03/13 05:40:40;;;;;;;13.98;9.50;;;10.60;99.90;;;;;;5059183;28;20455;-79
2023/03/13 05:43:05;;;;;;;13.35;9.98;;;10.70;99.90;;;;;;5059298;28;20048;-81
2023/03/13 05:45:31;;;;;;;14.82;9.90;;;10.70;99.90;;;;;;5074579;28;20535;-81
2023/03/13 05:48:00;;;;;;;15.45;10.40;;;10.70;99.90;;;;;;5087933;28;20401;-82
2023/03/13 05:50:26;;;;;;;14.82;9.90;;;10.80;99.90;;;;;;5063179;28;20400;-81
2023/03/13 05:52:51;;;;;;;14.18;10.80;;;10.80;99.90;;;;;;5081617;28;20052;-81
2023/03/13 05:55:18;;;;;;;14.10;9.85;;;10.80;99.90;;;;;;5057148;28;20127;-81
2023/03/13 05:57:45;;;;;;;16.15;10.85;;;10.90;99.90;;;;;;5067388;28;20514;-80
2023/03/13 06:00:12;;;;;;;16.27;11.50;;;10.90;99.90;;;;;;5072033;28;20518;-73
2023/03/13 06:02:38;;;;;;;16.35;11.45;;;10.90;99.90;;;;;;5071207;28;20048;-80
2023/03/13 06:05:04;;;;;;;16.70;12.00;;;11.00;99.90;;;;;;5057276;28;20052;-77
2023/03/13 06:07:29;;;;;;;16.88;10.57;;;11.00;99.90;;;;;;5073105;28;20101;-80
2023/03/13 06:09:55;;;;;;;16.05;10.30;;;11.00;99.90;;;;;;5074484;28;20047;-79
2023/03/13 06:12:21;;;;;;;16.40;11.98;;;11.10;99.90;;;;;;5052965;28;20047;-77
2023/03/13 06:14:46;;;;;;;16.40;11.88;;;11.00;99.90;;;;;;5089384;28;20159;-81
2023/03/13 06:17:12;;;;;;;16.17;11.88;;;11.10;99.90;;;;;;5071037;28;20094;-81
2023/03/13 06:19:38;;;;;;;15.60;11.40;;;11.10;99.90;;;;;;5068014;28;20083;-81
2023/03/13 06:22:04;;;;;;;16.70;12.48;;;11.10;99.90;;;;;;5065785;28;20477;-80
2023/03/13 06:24:30;;;;;;;16.85;11.10;;;11.20;99.90;;;;;;5069715;28;20048;-77
2023/03/13 06:26:55;;;;;;;17.92;10.52;;;11.30;99.90;;;;;;5073150;28;20102;-81
2023/03/13 06:29:23;;;;;;;15.32;11.27;;;11.30;99.90;;;;;;5063895;28;20049;-79
2023/03/13 06:31:50;;;;;;;15.52;10.70;;;10.50;99.90;;;;;;5045071;28;20493;-83
2023/03/13 06:34:16;;;;;;;13.23;9.85;;;11.40;99.90;;;;;;5068970;28;20563;-81
2023/03/13 06:36:42;;;;;;;15.43;11.20;;;11.40;99.90;;;;;;5071373;28;20045;-82
2023/03/13 06:39:09;;;;;;;14.40;10.75;;;11.50;99.90;;;;;;5067218;28;20094;-77
2023/03/13 06:41:35;;;;;;;14.77;9.45;;;11.50;99.90;;;;;;5070093;28;20052;-77
2023/03/13 06:44:01;;;;;;;13.85;8.30;;;11.60;99.90;;;;;;5072695;28;20519;-78
2023/03/13 06:46:27;;;;;;;14.85;9.02;;;11.60;99.90;;;;;;5070917;28;20509;-80
2023/03/13 06:48:52;;;;;;;15.45;6.30;;;11.70;99.90;;;;;;5057208;28;20448;-78
2023/03/13 06:51:20;;;;;;;14.50;7.20;;;11.70;99.90;;;;;;5072068;28;20038;-80
2023/03/13 06:53:47;;;;;;;12.38;6.75;;;11.80;99.90;;;;;;5068253;28;20417;-82
2023/03/13 06:56:13;;;;;;;13.55;6.60;;;11.80;99.90;;;;;;5045539;28;20124;-81
2023/03/13 06:58:39;;;;;;;13.00;6.88;;;11.80;99.90;;;;;;5071277;28;20123;-82
2023/03/13 07:01:07;;;;;;;14.63;6.90;;;11.80;99.90;;;;;;5071115;28;20584;-80
2023/03/13 07:03:33;;;;;;;16.23;6.65;;;11.90;99.90;;;;;;5064762;28;20440;-80
2023/03/13 07:05:59;;;;;;;13.18;5.57;;;11.90;99.90;;;;;;5058144;28;20505;-76
2023/03/13 07:08:25;;;;;;;14.00;5.97;;;11.90;99.90;;;;;;5062920;28;20055;-79
2023/03/13 07:10:52;;;;;;;13.52;6.15;;;11.90;99.90;;;;;;5067398;28;20056;-80
2023/03/13 07:13:20;;;;;;;12.20;5.90;;;12.00;99.90;;;;;;5061891;28;20052;-78
2023/03/13 07:15:47;;;;;;;11.13;5.90;;;12.00;99.90;;;;;;5068690;28;20052;-78
2023/03/13 07:18:13;;;;;;;13.85;5.72;;;12.00;99.90;;;;;;5051214;28;20040;-83
2023/03/13 07:20:39;;;;;;;14.27;5.82;;;12.10;99.90;;;;;;5063751;28;20060;-80
2023/03/13 07:23:05;;;;;;;16.70;5.97;;;12.10;99.90;;;;;;5050983;28;20049;-81
2023/03/13 07:25:30;;;;;;;14.40;5.20;;;12.10;99.90;;;;;;5027164;28;20051;-82
2023/03/13 07:27:56;;;;;;;14.13;5.20;;;12.10;99.90;;;;;;5054491;28;20048;-79
2023/03/13 07:30:22;;;;;;;14.85;5.82;;;12.10;99.90;;;;;;5071217;28;20120;-82
2023/03/13 07:32:48;;;;;;;15.00;5.70;;;12.10;99.90;;;;;;5069088;28;20049;-78
2023/03/13 07:35:14;;;;;;;12.38;4.75;;;12.10;99.90;;;;;;5072664;28;20107;-81
2023/03/13 07:37:40;;;;;;;11.52;5.10;;;12.10;99.90;;;;;;5069981;28;20056;-80
2023/03/13 07:40:08;;;;;;;13.13;4.93;;;12.10;99.90;;;;;;5071239;28;20044;-82
2023/03/13 07:42:33;;;;;;;11.25;4.53;;;12.20;99.90;;;;;;5070518;28;20485;-79
2023/03/13 07:44:59;;;;;;;9.80;4.55;;;12.20;99.90;;;;;;5071416;28;20086;-79
2023/03/13 07:47:25;;;;;;;11.73;4.40;;;12.20;99.90;;;;;;5071395;28;20052;-80
2023/03/13 07:49:52;;;;;;;13.50;4.40;;;12.30;99.90;;;;;;5070519;28;20105;-82
2023/03/13 07:52:18;;;;;;;11.32;3.95;;;12.30;99.90;;;;;;5053829;28;20094;-81
2023/03/13 07:54:44;;;;;;;11.20;3.90;;;12.40;99.90;;;;;;5071383;28;20053;-81
2023/03/13 07:57:10;;;;;;;11.35;4.22;;;12.50;99.90;;;;;;5070455;28;20066;-78
2023/03/13 07:59:38;;;;;;;13.60;4.35;;;12.50;99.90;;;;;;5071887;28;20127;-78
2023/03/13 08:02:04;;;;;;;13.10;4.35;;;12.50;99.90;;;;;;5069503;28;20098;-77
2023/03/13 08:04:30;;;;;;;10.90;4.00;;;12.50;99.90;;;;;;5072651;28;20408;-79
2023/03/13 08:06:56;;;;;;;11.07;3.90;;;12.60;99.90;;;;;;5071231;28;20045;-78
2023/03/13 08:09:21;;;;;;;11.15;4.70;;;12.50;99.90;;;;;;5073427;28;20049;-79
2023/03/13 08:11:47;;;;;;;11.77;4.82;;;12.50;99.90;;;;;;5071380;28;20040;-77
2023/03/13 08:14:13;;;;;;;12.80;5.00;;;12.50;99.90;;;;;;5071057;28;20044;-77
2023/03/13 08:16:39;;;;;;;9.43;4.25;;;12.50;99.90;;;;;;5074965;28;20107;-77
2023/03/13 08:19:05;;;;;;;13.38;4.50;;;12.40;99.90;;;;;;5064461;28;20060;-78
2023/03/13 08:21:35;;;;;;;12.57;4.75;;;12.40;99.90;;;;;;5069738;28;20441;-76
2023/03/13 08:24:05;;;;;;;10.35;4.65;;;12.30;99.90;;;;;;5071796;28;20075;-76
2023/03/13 08:26:32;;;;;;;10.90;4.95;;;12.30;99.90;;;;;;5057445;28;20052;-76
2023/03/13 08:29:00;;;;;;;12.30;5.18;;;12.30;99.90;;;;;;5069975;28;20051;-77
2023/03/13 08:31:29;;;;;;;12.55;4.63;;;12.20;99.90;;;;;;5075941;28;20056;-76
2023/03/13 08:33:55;;;;;;;8.35;3.97;;;12.20;99.90;;;;;;5066196;28;20049;-77
2023/03/13 08:36:23;;;;;;;10.50;4.30;;;12.20;99.90;;;;;;5073784;28;20044;-77
2023/03/13 08:38:50;;;;;;;9.93;4.15;;;12.20;99.90;;;;;;5077364;28;20080;-80
2023/03/13 08:41:18;;;;;;;8.35;3.60;;;12.20;99.90;;;;;;5077011;28;20446;-81
2023/03/13 08:43:45;;;;;;;8.77;3.47;;;12.30;99.90;;;;;;5068727;28;20060;-80
2023/03/13 08:46:12;;;;;;;9.23;3.40;;;12.30;99.90;;;;;;5071338;28;20086;-76
2023/03/13 08:48:37;;;;;;;8.50;2.95;;;12.40;99.90;;;;;;5075552;28;20052;-79
2023/03/13 08:51:22;;;;;;;9.07;3.17;;;12.50;99.90;;;;;;5047434;28;20059;-77
2023/03/13 08:53:49;;;;;;;7.43;2.80;;;12.60;99.90;;;;;;5031861;28;20094;-78
2023/03/13 08:56:17;;;;;;;7.47;2.85;;;12.60;99.90;;;;;;5070263;28;20052;-77
2023/03/13 08:58:43;;;;;;;7.15;2.85;;;12.70;99.90;;;;;;5076333;28;20066;-81
2023/03/13 09:01:12;;;;;;;6.35;2.40;;;12.70;99.90;;;;;;5077119;28;20048;-79
2023/03/13 09:03:39;;;;;;;7.22;2.70;;;12.70;99.90;;;;;;5069152;28;20056;-79
2023/03/13 09:06:05;;;;;;;7.82;2.35;;;12.80;99.90;;;;;;5070032;28;20041;-79
2023/03/13 09:08:32;;;;;;;6.47;2.25;;;12.80;99.90;;;;;;5069157;28;20047;-78
2023/03/13 09:11:03;;;;;;;6.28;2.17;;;12.90;99.90;;;;;;5094096;28;20043;-78
2023/03/13 09:13:32;;;;;;;9.15;2.90;;;13.10;99.90;;;;;;5076574;28;20079;-80
2023/03/13 09:16:00;;;;;;;6.45;2.35;;;13.20;99.90;;;;;;5076060;28;20040;-77
2023/03/13 09:18:27;;;;;;;8.52;2.10;;;13.40;99.90;;;;;;5094481;28;20059;-81
2023/03/13 09:20:53;;;;;;;6.30;2.13;;;13.50;99.90;;;;;;5074128;28;20456;-78
2023/03/13 09:23:19;;;;;;;6.38;2.22;;;13.60;99.90;;;;;;5073235;28;20083;-81
2023/03/13 09:25:45;;;;;;;7.50;2.53;;;13.70;99.90;;;;;;5088234;28;20048;-78
2023/03/13 09:28:12;;;;;;;7.95;2.60;;;13.60;99.90;;;;;;5059418;28;20500;-78
2023/03/13 09:30:37;;;;;;;8.10;2.47;;;13.60;99.90;;;;;;5076243;28;20040;-78
2023/03/13 09:33:03;;;;;;;8.05;2.20;;;13.60;99.90;;;;;;5054946;28;20118;-77
2023/03/13 09:35:29;;;;;;;6.25;1.98;;;13.60;99.90;;;;;;5083986;28;20043;-78
2023/03/13 09:37:55;;;;;;;8.35;2.35;;;13.50;99.90;;;;;;5075256;28;20043;-78
2023/03/13 09:40:23;;;;;;;7.20;2.10;;;13.50;99.90;;;;;;5059611;28;20059;-77
2023/03/13 09:42:55;;;;;;;7.72;2.03;;;13.50;99.90;;;;;;5093319;28;20044;-78
2023/03/13 09:45:35;;;;;;;6.00;1.70;;;13.50;99.90;;;;;;5076090;28;20044;-76
2023/03/13 09:48:25;;;;;;;6.97;1.98;;;13.60;99.90;;;;;;5058232;28;20409;-79
2023/03/13 09:50:58;;;;;;;5.32;1.75;;;13.60;99.90;;;;;;5075414;28;20044;-77
2023/03/13 09:53:35;;;;;;;4.78;1.80;;;13.60;99.90;;;;;;5060627;28;20051;-77
2023/03/13 09:56:04;;;;;;;6.60;1.95;;;13.50;99.90;;;;;;5075765;28;20048;-77
2023/03/13 09:58:32;;;;;;;6.28;1.77;;;13.60;99.90;;;;;;5071273;28;20395;-75
2023/03/13 10:01:02;;;;;;;5.45;1.60;;;13.60;99.90;;;;;;5065678;28;20412;-78
2023/03/13 10:03:52;;;;;;;6.07;1.67;;;13.60;99.90;;;;;;5069163;28;20080;-78
2023/03/13 10:06:20;;;;;;;5.63;1.77;;;13.70;99.90;;;;;;5066279;28;20105;-74
2023/03/13 10:08:45;;;;;;;7.10;1.83;;;13.80;99.90;;;;;;5069154;28;20400;-78
2023/03/13 10:11:28;;;;;;;7.15;1.95;;;13.80;99.90;;;;;;5058981;28;20032;-76
2023/03/13 10:14:12;;;;;;;7.88;1.58;;;13.90;99.90;;;;;;5069278;28;20056;-78
2023/03/13 10:16:42;;;;;;;7.95;1.95;;;14.20;99.90;;;;;;5081861;28;20052;-76
2023/03/13 10:19:17;;;;;;;10.20;2.20;;;14.40;99.90;;;;;;5093042;28;20124;-79
2023/03/13 10:21:46;;;;;;;9.27;2.20;;;14.50;99.90;;;;;;5065960;28;20399;-76
2023/03/13 10:24:33;;;;;;;8.80;2.00;;;14.50;99.90;;;;;;5068308;28;20056;-78
2023/03/13 10:26:58;;;;;;;7.63;2.13;;;14.70;99.90;;;;;;5092662;28;20145;-78
2023/03/13 10:29:30;;;;;;;9.40;1.75;;;14.90;99.90;;;;;;5074599;28;20488;-76
2023/03/13 10:32:05;;;;;;;7.57;1.98;;;14.90;99.90;;;;;;5065575;28;20041;-79
2023/03/13 10:34:55;;;;;;;9.23;2.05;;;14.90;99.90;;;;;;5089059;28;20086;-77
2023/03/13 10:37:26;;;;;;;7.47;2.03;;;14.80;99.90;;;;;;5062900;28;20139;-76
2023/03/13 10:39:52;;;;;;;6.57;2.00;;;14.70;99.90;;;;;;5073476;28;20048;-78
2023/03/13 10:42:27;;;;;;;9.02;2.20;;;14.50;99.90;;;;;;5055119;28;20048;-77
2023/03/13 10:44:59;;;;;;;6.70;1.70;;;14.50;99.90;;;;;;5069078;28;20045;-75
2023/03/13 10:47:25;;;;;;;7.97;2.17;;;14.50;99.90;;;;;;5082755;28;20038;-76
2023/03/13 10:49:55;;;;;;;8.23;2.00;;;14.40;99.90;;;;;;5074802;28;20384;-77
2023/03/13 10:52:42;;;;;;;10.32;2.20;;;14.40;99.90;;;;;;5074447;28;20048;-78
2023/03/13 10:55:15;;;;;;;8.77;2.33;;;14.40;99.90;;;;;;5074338;28;20122;-77
2023/03/13 10:57:56;;;;;;;8.60;2.10;;;14.40;99.90;;;;;;5074985;28;20045;-77
2023/03/13 11:00:41;;;;;;;8.35;2.50;;;14.40;99.90;;;;;;5070910;28;20049;-77
2023/03/13 11:03:21;;;;;;;8.07;2.10;;;14.50;99.90;;;;;;5048321;28;21785;-76
2023/03/13 11:05:59;;;;;;;9.35;2.55;;;14.50;99.90;;;;;;5061378;28;20388;-78
2023/03/13 11:08:35;;;;;;;8.00;2.33;;;14.50;99.90;;;;;;5066312;28;20052;-76
2023/03/13 11:11:04;;;;;;;8.70;2.20;;;14.60;99.90;;;;;;5074601;28;20127;-77
2023/03/13 11:13:34;;;;;;;8.65;2.25;;;14.60;99.90;;;;;;5068450;28;20488;-78
2023/03/13 11:16:08;;;;;;;8.80;2.25;;;14.60;99.90;;;;;;5060020;28;20040;-78
2023/03/13 11:19:00;;;;;;;7.10;2.10;;;14.60;99.90;;;;;;5091928;28;20101;-76
2023/03/13 11:21:56;;;;;;;8.52;2.10;;;14.70;99.90;;;;;;5054012;28;20316;-76
2023/03/13 11:24:46;;;;;;;6.35;1.85;;;14.90;99.90;;;;;;5051050;28;20882;-76
2023/03/13 11:27:39;;;;;;;6.90;1.90;;;15.20;99.90;;;;;;5051977;28;20059;-78
2023/03/13 11:30:18;;;;;;;6.35;1.90;;;15.30;99.90;;;;;;5060288;28;20048;-75
2023/03/13 11:32:55;;;;;;;6.40;1.85;;;15.30;99.90;;;;;;5071428;28;20496;-76
2023/03/13 11:35:45;;;;;;;7.78;1.73;;;15.50;99.90;;;;;;5054024;28;20071;-77
2023/03/13 11:38:42;;;;;;;6.70;1.73;;;15.60;99.90;;;;;;5053459;28;20102;-76
2023/03/13 11:41:36;;;;;;;7.30;1.80;;;15.60;99.90;;;;;;5040945;28;20144;-76
2023/03/13 11:44:18;;;;;;;6.05;1.63;;;15.70;99.90;;;;;;5048954;28;20484;-75
2023/03/13 11:47:09;;;;;;;5.38;1.50;;;15.70;99.90;;;;;;5053836;28;20055;-75
2023/03/13 11:49:53;;;;;;;6.20;1.42;;;15.70;99.90;;;;;;5068869;28;20060;-76
2023/03/13 11:52:50;;;;;;;6.18;1.65;;;15.70;99.90;;;;;;5057688;28;20067;-75
2023/03/13 11:55:34;;;;;;;6.55;1.65;;;15.70;99.90;;;;;;5053891;28;20053;-75
2023/03/13 11:58:27;;;;;;;5.72;1.50;;;15.60;99.90;;;;;;5051739;28;20044;-76
2023/03/13 12:01:07;;;;;;;5.68;1.48;;;15.70;99.90;;;;;;5055525;28;20497;-75
2023/03/13 12:03:49;;;;;;;6.30;1.88;;;15.80;99.90;;;;;;5048238;28;20056;-75
2023/03/13 12:06:27;;;;;;;;;;;16.10;99.90;;;;;;5062848;28;20076;-75
2023/03/13 12:08:58;;;;;;;6.32;1.63;;;16.30;99.90;;;;;;5070900;28;19964;-78
2023/03/13 12:11:42;;;;;;;7.47;1.63;;;16.60;99.90;;;;;;5054445;28;20128;-75
2023/03/13 12:14:17;;;;;;;7.28;1.67;;;16.70;99.90;;;;;;5053228;28;20396;-75
2023/03/13 12:16:52;;;;;;;6.15;1.60;;;16.70;99.90;;;;;;5053857;28;20045;-75
2023/03/13 12:20:00;;;;;;;5.65;1.35;;;16.60;99.90;;;;;;5058894;28;20496;-75
2023/03/13 12:22:47;;;;;;;7.95;1.75;;;16.50;99.90;;;;;;4992584;28;20062;-73
2023/03/13 12:25:51;;;;;;;6.28;1.50;;;16.30;99.90;;;;;;5070290;28;20105;-77
2023/03/13 12:28:58;;;;;;;7.18;1.80;;;16.20;99.90;;;;;;5020845;28;20053;-74
2023/03/13 12:31:31;;;;;;;6.40;1.65;;;16.20;99.90;;;;;;5092280;28;20052;-73
2023/03/13 12:34:10;;;;;;;7.28;1.80;;;16.20;99.90;;;;;;5065870;28;20557;-74
2023/03/13 12:36:45;;;;;;;6.30;1.73;;;16.30;99.90;;;;;;5075679;28;20050;-74
2023/03/13 12:39:33;;;;;;;6.43;1.63;;;16.30;99.90;;;;;;5077126;28;20048;-74
2023/03/13 12:42:09;;;;;;;5.38;1.60;;;16.30;99.90;;;;;;5083060;28;20048;-74
2023/03/13 12:44:35;;;;;;;6.82;1.60;;;16.30;99.90;;;;;;5075453;28;20377;-74
2023/03/13 12:47:07;;;;;;;5.88;1.52;;;16.30;99.90;;;;;;5040153;28;20060;-73
2023/03/13 12:50:00;;;;;;;6.22;1.73;;;16.30;99.90;;;;;;5088699;28;20117;-74
2023/03/13 12:53:00;;;;;;;7.85;1.80;;;16.30;99.90;;;;;;5059848;28;20051;-73
2023/03/13 12:55:51;;;;;;;7.80;1.77;;;16.30;99.90;;;;;;5060434;28;20109;-75
2023/03/13 12:58:23;;;;;;;5.97;1.70;;;16.40;99.90;;;;;;5062132;28;20494;-74